sensor_id;sensor_type;location;lat;lon;timestamp;P1;durP1;ratioP1;P2;durP2;ratioP2
54261;SDS011;40174;52.364;6.452;2022-07-29T00:00:10;4.18;;;1.20;;
54261;SDS011;40174;52.364;6.452;2022-07-29T00:02:37;5.72;;;1.10;;
54261;SDS011;40174;52.364;6.452;2022-07-29T00:05:04;2.65;;;1.20;;
54261;SDS011;40174;52.364;6.452;2022-07-29T00:07:31;3.13;;;1.13;;
54261;SDS011;40174;52.364;6.452;2022-07-29T00:09:57;3.00;;;1.08;;
54261;SDS011;40174;52.364;6.452;2022-07-29T00:12:24;4.75;;;0.93;;
54261;SDS011;40174;52.364;6.452;2022-07-29T00:14:53;2.80;;;1.00;;
54261;SDS011;40174;52.364;6.452;2022-07-29T00:17:20;3.25;;;1.02;;
54261;SDS011;40174;52.364;6.452;2022-07-29T00:19:47;3.08;;;1.38;;
54261;SDS011;40174;52.364;6.452;2022-07-29T00:22:14;2.63;;;0.90;;
54261;SDS011;40174;52.364;6.452;2022-07-29T00:24:40;3.22;;;1.40;;
54261;SDS011;40174;52.364;6.452;2022-07-29T00:27:07;4.50;;;1.27;;
54261;SDS011;40174;52.364;6.452;2022-07-29T00:29:33;2.88;;;0.98;;
54261;SDS011;40174;52.364;6.452;2022-07-29T00:32:01;4.75;;;1.25;;
54261;SDS011;40174;52.364;6.452;2022-07-29T00:34:28;2.67;;;1.00;;
54261;SDS011;40174;52.364;6.452;2022-07-29T00:37:13;4.03;;;1.20;;
54261;SDS011;40174;52.364;6.452;2022-07-29T00:39:39;2.25;;;0.90;;
54261;SDS011;40174;52.364;6.452;2022-07-29T00:42:06;4.45;;;1.02;;
54261;SDS011;40174;52.364;6.452;2022-07-29T00:44:35;3.33;;;1.20;;
54261;SDS011;40174;52.364;6.452;2022-07-29T00:47:04;4.15;;;1.17;;
54261;SDS011;40174;52.364;6.452;2022-07-29T00:49:31;5.90;;;1.20;;
54261;SDS011;40174;52.364;6.452;2022-07-29T00:51:57;4.45;;;1.10;;
54261;SDS011;40174;52.364;6.452;2022-07-29T00:54:26;4.18;;;1.55;;
54261;SDS011;40174;52.364;6.452;2022-07-29T00:56:54;3.65;;;1.17;;
54261;SDS011;40174;52.364;6.452;2022-07-29T00:59:22;4.13;;;1.25;;
54261;SDS011;40174;52.364;6.452;2022-07-29T01:01:49;3.13;;;1.02;;
54261;SDS011;40174;52.364;6.452;2022-07-29T01:04:16;7.10;;;1.40;;
54261;SDS011;40174;52.364;6.452;2022-07-29T01:06:43;4.22;;;1.30;;
54261;SDS011;40174;52.364;6.452;2022-07-29T01:09:10;2.47;;;1.20;;
54261;SDS011;40174;52.364;6.452;2022-07-29T01:11:37;3.05;;;1.10;;
54261;SDS011;40174;52.364;6.452;2022-07-29T01:14:05;2.08;;;1.02;;
54261;SDS011;40174;52.364;6.452;2022-07-29T01:16:35;2.35;;;0.90;;
54261;SDS011;40174;52.364;6.452;2022-07-29T01:19:13;3.78;;;1.40;;
54261;SDS011;40174;52.364;6.452;2022-07-29T01:21:59;3.38;;;1.10;;
54261;SDS011;40174;52.364;6.452;2022-07-29T01:24:39;3.50;;;1.15;;
54261;SDS011;40174;52.364;6.452;2022-07-29T01:27:28;3.05;;;1.45;;
54261;SDS011;40174;52.364;6.452;2022-07-29T01:30:06;2.33;;;1.10;;
54261;SDS011;40174;52.364;6.452;2022-07-29T01:32:35;5.28;;;1.27;;
54261;SDS011;40174;52.364;6.452;2022-07-29T01:35:03;6.97;;;1.23;;
54261;SDS011;40174;52.364;6.452;2022-07-29T01:37:34;5.43;;;1.60;;
54261;SDS011;40174;52.364;6.452;2022-07-29T01:40:08;3.63;;;1.20;;
54261;SDS011;40174;52.364;6.452;2022-07-29T01:42:42;2.33;;;1.10;;
54261;SDS011;40174;52.364;6.452;2022-07-29T01:45:12;3.42;;;1.27;;
54261;SDS011;40174;52.364;6.452;2022-07-29T01:47:42;3.55;;;1.15;;
54261;SDS011;40174;52.364;6.452;2022-07-29T01:50:14;3.90;;;1.45;;
54261;SDS011;40174;52.364;6.452;2022-07-29T01:52:44;2.53;;;0.98;;
54261;SDS011;40174;52.364;6.452;2022-07-29T01:55:16;2.45;;;1.02;;
54261;SDS011;40174;52.364;6.452;2022-07-29T01:57:46;3.22;;;1.20;;
54261;SDS011;40174;52.364;6.452;2022-07-29T02:00:16;3.30;;;1.13;;
54261;SDS011;40174;52.364;6.452;2022-07-29T02:02:44;2.40;;;1.20;;
54261;SDS011;40174;52.364;6.452;2022-07-29T02:05:14;3.22;;;1.20;;
54261;SDS011;40174;52.364;6.452;2022-07-29T02:07:43;3.85;;;1.33;;
54261;SDS011;40174;52.364;6.452;2022-07-29T02:10:12;4.20;;;1.38;;
54261;SDS011;40174;52.364;6.452;2022-07-29T02:12:40;3.33;;;1.13;;
54261;SDS011;40174;52.364;6.452;2022-07-29T02:15:09;3.58;;;1.00;;
54261;SDS011;40174;52.364;6.452;2022-07-29T02:17:41;5.75;;;1.38;;
54261;SDS011;40174;52.364;6.452;2022-07-29T02:20:10;3.17;;;1.30;;
54261;SDS011;40174;52.364;6.452;2022-07-29T02:22:38;4.47;;;1.20;;
54261;SDS011;40174;52.364;6.452;2022-07-29T02:25:06;3.05;;;1.38;;
54261;SDS011;40174;52.364;6.452;2022-07-29T02:27:34;4.60;;;1.60;;
54261;SDS011;40174;52.364;6.452;2022-07-29T02:30:03;2.20;;;1.20;;
54261;SDS011;40174;52.364;6.452;2022-07-29T02:32:32;5.03;;;1.10;;
54261;SDS011;40174;52.364;6.452;2022-07-29T02:35:03;2.42;;;1.27;;
54261;SDS011;40174;52.364;6.452;2022-07-29T02:37:30;3.60;;;1.20;;
54261;SDS011;40174;52.364;6.452;2022-07-29T02:39:58;3.50;;;1.48;;
54261;SDS011;40174;52.364;6.452;2022-07-29T02:42:26;4.57;;;1.20;;
54261;SDS011;40174;52.364;6.452;2022-07-29T02:44:54;3.92;;;1.15;;
54261;SDS011;40174;52.364;6.452;2022-07-29T02:47:22;1.75;;;0.90;;
54261;SDS011;40174;52.364;6.452;2022-07-29T02:49:52;2.38;;;1.00;;
54261;SDS011;40174;52.364;6.452;2022-07-29T02:52:24;6.38;;;1.63;;
54261;SDS011;40174;52.364;6.452;2022-07-29T02:54:55;4.20;;;1.30;;
54261;SDS011;40174;52.364;6.452;2022-07-29T02:57:27;3.83;;;1.40;;
54261;SDS011;40174;52.364;6.452;2022-07-29T02:59:58;3.17;;;1.10;;
54261;SDS011;40174;52.364;6.452;2022-07-29T03:02:33;2.13;;;1.10;;
54261;SDS011;40174;52.364;6.452;2022-07-29T03:05:02;1.88;;;1.25;;
54261;SDS011;40174;52.364;6.452;2022-07-29T03:07:32;3.72;;;1.15;;
54261;SDS011;40174;52.364;6.452;2022-07-29T03:10:00;4.25;;;0.90;;
54261;SDS011;40174;52.364;6.452;2022-07-29T03:12:28;5.28;;;1.35;;
54261;SDS011;40174;52.364;6.452;2022-07-29T03:14:55;5.07;;;1.20;;
54261;SDS011;40174;52.364;6.452;2022-07-29T03:17:22;2.90;;;1.20;;
54261;SDS011;40174;52.364;6.452;2022-07-29T03:19:49;5.00;;;1.25;;
54261;SDS011;40174;52.364;6.452;2022-07-29T03:22:16;2.47;;;1.30;;
54261;SDS011;40174;52.364;6.452;2022-07-29T03:24:44;3.88;;;1.10;;
54261;SDS011;40174;52.364;6.452;2022-07-29T03:27:11;3.45;;;1.15;;
54261;SDS011;40174;52.364;6.452;2022-07-29T03:29:38;1.65;;;0.93;;
54261;SDS011;40174;52.364;6.452;2022-07-29T03:32:05;1.90;;;0.98;;
54261;SDS011;40174;52.364;6.452;2022-07-29T03:34:32;4.70;;;1.33;;
54261;SDS011;40174;52.364;6.452;2022-07-29T03:36:58;1.85;;;1.02;;
54261;SDS011;40174;52.364;6.452;2022-07-29T03:39:25;3.67;;;1.48;;
54261;SDS011;40174;52.364;6.452;2022-07-29T03:41:56;4.32;;;1.30;;
54261;SDS011;40174;52.364;6.452;2022-07-29T03:44:25;6.93;;;1.30;;
54261;SDS011;40174;52.364;6.452;2022-07-29T03:46:55;4.45;;;1.40;;
54261;SDS011;40174;52.364;6.452;2022-07-29T03:49:24;6.22;;;1.70;;
54261;SDS011;40174;52.364;6.452;2022-07-29T03:51:51;3.03;;;1.40;;
54261;SDS011;40174;52.364;6.452;2022-07-29T03:54:18;4.53;;;1.30;;
54261;SDS011;40174;52.364;6.452;2022-07-29T03:56:45;2.53;;;1.10;;
54261;SDS011;40174;52.364;6.452;2022-07-29T03:59:16;4.22;;;1.33;;
54261;SDS011;40174;52.364;6.452;2022-07-29T04:01:45;5.15;;;1.42;;
54261;SDS011;40174;52.364;6.452;2022-07-29T04:04:12;3.53;;;1.10;;
54261;SDS011;40174;52.364;6.452;2022-07-29T04:06:39;1.73;;;1.17;;
54261;SDS011;40174;52.364;6.452;2022-07-29T04:09:06;3.22;;;1.30;;
54261;SDS011;40174;52.364;6.452;2022-07-29T04:11:33;2.88;;;1.30;;
54261;SDS011;40174;52.364;6.452;2022-07-29T04:14:00;5.82;;;1.48;;
54261;SDS011;40174;52.364;6.452;2022-07-29T04:16:28;7.88;;;1.30;;
54261;SDS011;40174;52.364;6.452;2022-07-29T04:18:55;2.85;;;1.13;;
54261;SDS011;40174;52.364;6.452;2022-07-29T04:21:21;2.60;;;1.08;;
54261;SDS011;40174;52.364;6.452;2022-07-29T04:23:48;2.47;;;1.13;;
54261;SDS011;40174;52.364;6.452;2022-07-29T04:26:15;3.22;;;1.30;;
54261;SDS011;40174;52.364;6.452;2022-07-29T04:28:42;2.95;;;1.27;;
54261;SDS011;40174;52.364;6.452;2022-07-29T04:31:08;2.72;;;1.40;;
54261;SDS011;40174;52.364;6.452;2022-07-29T04:33:36;4.30;;;1.30;;
54261;SDS011;40174;52.364;6.452;2022-07-29T04:36:03;3.17;;;1.48;;
54261;SDS011;40174;52.364;6.452;2022-07-29T04:38:30;2.97;;;1.20;;
54261;SDS011;40174;52.364;6.452;2022-07-29T04:40:57;4.65;;;1.30;;
54261;SDS011;40174;52.364;6.452;2022-07-29T04:43:23;5.60;;;1.48;;
54261;SDS011;40174;52.364;6.452;2022-07-29T04:45:50;3.47;;;1.33;;
54261;SDS011;40174;52.364;6.452;2022-07-29T04:48:16;2.10;;;1.20;;
54261;SDS011;40174;52.364;6.452;2022-07-29T04:50:44;7.55;;;1.52;;
54261;SDS011;40174;52.364;6.452;2022-07-29T04:53:11;4.25;;;1.58;;
54261;SDS011;40174;52.364;6.452;2022-07-29T04:55:37;2.47;;;1.20;;
54261;SDS011;40174;52.364;6.452;2022-07-29T04:58:04;2.50;;;1.42;;
54261;SDS011;40174;52.364;6.452;2022-07-29T05:00:30;3.92;;;1.45;;
54261;SDS011;40174;52.364;6.452;2022-07-29T05:02:57;3.15;;;1.50;;
54261;SDS011;40174;52.364;6.452;2022-07-29T05:05:23;3.40;;;1.30;;
54261;SDS011;40174;52.364;6.452;2022-07-29T05:07:51;3.22;;;1.30;;
54261;SDS011;40174;52.364;6.452;2022-07-29T05:10:18;3.30;;;1.23;;
54261;SDS011;40174;52.364;6.452;2022-07-29T05:12:45;4.43;;;1.35;;
54261;SDS011;40174;52.364;6.452;2022-07-29T05:15:11;3.58;;;1.15;;
54261;SDS011;40174;52.364;6.452;2022-07-29T05:17:38;4.60;;;1.77;;
54261;SDS011;40174;52.364;6.452;2022-07-29T05:20:05;2.72;;;1.30;;
54261;SDS011;40174;52.364;6.452;2022-07-29T05:22:32;3.05;;;1.38;;
54261;SDS011;40174;52.364;6.452;2022-07-29T05:25:00;8.75;;;1.40;;
54261;SDS011;40174;52.364;6.452;2022-07-29T05:27:27;3.95;;;1.40;;
54261;SDS011;40174;52.364;6.452;2022-07-29T05:29:54;2.85;;;1.30;;
54261;SDS011;40174;52.364;6.452;2022-07-29T05:32:21;3.80;;;1.33;;
54261;SDS011;40174;52.364;6.452;2022-07-29T05:34:47;4.47;;;1.30;;
54261;SDS011;40174;52.364;6.452;2022-07-29T05:37:14;4.50;;;1.50;;
54261;SDS011;40174;52.364;6.452;2022-07-29T05:39:40;4.97;;;1.40;;
54261;SDS011;40174;52.364;6.452;2022-07-29T05:42:09;5.85;;;1.30;;
54261;SDS011;40174;52.364;6.452;2022-07-29T05:44:36;7.15;;;1.63;;
54261;SDS011;40174;52.364;6.452;2022-07-29T05:47:03;4.43;;;1.55;;
54261;SDS011;40174;52.364;6.452;2022-07-29T05:49:29;3.60;;;1.13;;
54261;SDS011;40174;52.364;6.452;2022-07-29T05:51:56;3.13;;;1.60;;
54261;SDS011;40174;52.364;6.452;2022-07-29T05:54:23;3.42;;;1.30;;
54261;SDS011;40174;52.364;6.452;2022-07-29T05:56:49;4.63;;;1.38;;
54261;SDS011;40174;52.364;6.452;2022-07-29T05:59:17;5.53;;;1.50;;
54261;SDS011;40174;52.364;6.452;2022-07-29T06:01:44;6.57;;;1.27;;
54261;SDS011;40174;52.364;6.452;2022-07-29T06:04:10;7.47;;;1.45;;
54261;SDS011;40174;52.364;6.452;2022-07-29T06:06:37;5.03;;;1.52;;
54261;SDS011;40174;52.364;6.452;2022-07-29T06:09:03;3.90;;;1.50;;
54261;SDS011;40174;52.364;6.452;2022-07-29T06:11:30;6.38;;;1.67;;
54261;SDS011;40174;52.364;6.452;2022-07-29T06:13:56;5.25;;;2.15;;
54261;SDS011;40174;52.364;6.452;2022-07-29T06:16:24;4.88;;;1.70;;
54261;SDS011;40174;52.364;6.452;2022-07-29T06:18:51;2.95;;;1.95;;
54261;SDS011;40174;52.364;6.452;2022-07-29T06:21:18;4.25;;;2.10;;
54261;SDS011;40174;52.364;6.452;2022-07-29T06:23:44;3.78;;;1.50;;
54261;SDS011;40174;52.364;6.452;2022-07-29T06:26:11;4.25;;;1.52;;
54261;SDS011;40174;52.364;6.452;2022-07-29T06:28:38;4.90;;;1.80;;
54261;SDS011;40174;52.364;6.452;2022-07-29T06:31:05;5.38;;;1.70;;
54261;SDS011;40174;52.364;6.452;2022-07-29T06:33:33;5.57;;;2.00;;
54261;SDS011;40174;52.364;6.452;2022-07-29T06:35:59;8.00;;;1.85;;
54261;SDS011;40174;52.364;6.452;2022-07-29T06:38:26;5.38;;;1.90;;
54261;SDS011;40174;52.364;6.452;2022-07-29T06:40:52;5.00;;;2.13;;
54261;SDS011;40174;52.364;6.452;2022-07-29T06:43:30;6.45;;;2.03;;
54261;SDS011;40174;52.364;6.452;2022-07-29T06:45:59;5.13;;;2.10;;
54261;SDS011;40174;52.364;6.452;2022-07-29T06:48:27;3.78;;;1.70;;
54261;SDS011;40174;52.364;6.452;2022-07-29T06:50:55;5.22;;;2.00;;
54261;SDS011;40174;52.364;6.452;2022-07-29T06:53:22;7.90;;;1.98;;
54261;SDS011;40174;52.364;6.452;2022-07-29T06:55:49;3.90;;;1.80;;
54261;SDS011;40174;52.364;6.452;2022-07-29T06:58:16;2.80;;;1.52;;
54261;SDS011;40174;52.364;6.452;2022-07-29T07:00:54;5.97;;;2.03;;
54261;SDS011;40174;52.364;6.452;2022-07-29T07:03:21;5.70;;;1.85;;
54261;SDS011;40174;52.364;6.452;2022-07-29T07:05:48;7.80;;;1.90;;
54261;SDS011;40174;52.364;6.452;2022-07-29T07:08:16;4.28;;;1.90;;
54261;SDS011;40174;52.364;6.452;2022-07-29T07:10:44;4.07;;;1.63;;
54261;SDS011;40174;52.364;6.452;2022-07-29T07:13:11;5.30;;;1.50;;
54261;SDS011;40174;52.364;6.452;2022-07-29T07:15:38;7.85;;;2.25;;
54261;SDS011;40174;52.364;6.452;2022-07-29T07:18:05;3.08;;;1.85;;
54261;SDS011;40174;52.364;6.452;2022-07-29T07:20:32;4.75;;;1.80;;
54261;SDS011;40174;52.364;6.452;2022-07-29T07:22:59;4.88;;;1.98;;
54261;SDS011;40174;52.364;6.452;2022-07-29T07:25:27;7.90;;;1.67;;
54261;SDS011;40174;52.364;6.452;2022-07-29T07:27:54;7.63;;;1.80;;
54261;SDS011;40174;52.364;6.452;2022-07-29T07:30:21;4.68;;;2.15;;
54261;SDS011;40174;52.364;6.452;2022-07-29T07:32:47;4.50;;;1.67;;
54261;SDS011;40174;52.364;6.452;2022-07-29T07:35:14;8.32;;;2.08;;
54261;SDS011;40174;52.364;6.452;2022-07-29T07:37:41;4.70;;;1.90;;
54261;SDS011;40174;52.364;6.452;2022-07-29T07:40:09;7.00;;;2.17;;
54261;SDS011;40174;52.364;6.452;2022-07-29T07:42:38;6.40;;;2.15;;
54261;SDS011;40174;52.364;6.452;2022-07-29T07:45:06;11.75;;;2.50;;
54261;SDS011;40174;52.364;6.452;2022-07-29T07:47:34;4.78;;;1.73;;
54261;SDS011;40174;52.364;6.452;2022-07-29T07:50:02;7.13;;;1.83;;
54261;SDS011;40174;52.364;6.452;2022-07-29T07:52:29;5.30;;;1.88;;
54261;SDS011;40174;52.364;6.452;2022-07-29T07:54:55;6.50;;;2.08;;
54261;SDS011;40174;52.364;6.452;2022-07-29T07:57:22;4.63;;;2.00;;
54261;SDS011;40174;52.364;6.452;2022-07-29T07:59:50;5.50;;;2.50;;
54261;SDS011;40174;52.364;6.452;2022-07-29T08:02:17;7.72;;;2.83;;
54261;SDS011;40174;52.364;6.452;2022-07-29T08:04:43;8.13;;;2.58;;
54261;SDS011;40174;52.364;6.452;2022-07-29T08:07:10;4.95;;;1.85;;
54261;SDS011;40174;52.364;6.452;2022-07-29T08:09:36;5.53;;;2.28;;
54261;SDS011;40174;52.364;6.452;2022-07-29T08:12:03;3.95;;;2.05;;
54261;SDS011;40174;52.364;6.452;2022-07-29T08:14:31;5.90;;;2.33;;
54261;SDS011;40174;52.364;6.452;2022-07-29T08:16:59;5.40;;;1.88;;
54261;SDS011;40174;52.364;6.452;2022-07-29T08:19:26;5.63;;;2.15;;
54261;SDS011;40174;52.364;6.452;2022-07-29T08:21:52;5.40;;;2.60;;
54261;SDS011;40174;52.364;6.452;2022-07-29T08:24:19;6.50;;;2.30;;
54261;SDS011;40174;52.364;6.452;2022-07-29T08:27:03;6.90;;;2.47;;
54261;SDS011;40174;52.364;6.452;2022-07-29T08:29:30;6.82;;;2.33;;
54261;SDS011;40174;52.364;6.452;2022-07-29T08:31:58;5.93;;;1.92;;
54261;SDS011;40174;52.364;6.452;2022-07-29T08:34:25;7.15;;;2.20;;
54261;SDS011;40174;52.364;6.452;2022-07-29T08:36:51;6.50;;;2.10;;
54261;SDS011;40174;52.364;6.452;2022-07-29T08:39:18;5.20;;;2.13;;
54261;SDS011;40174;52.364;6.452;2022-07-29T08:41:44;7.60;;;2.17;;
54261;SDS011;40174;52.364;6.452;2022-07-29T08:44:12;6.18;;;2.15;;
54261;SDS011;40174;52.364;6.452;2022-07-29T08:46:39;4.50;;;2.00;;
54261;SDS011;40174;52.364;6.452;2022-07-29T08:49:07;6.82;;;2.13;;
54261;SDS011;40174;52.364;6.452;2022-07-29T08:51:34;4.32;;;2.13;;
54261;SDS011;40174;52.364;6.452;2022-07-29T08:54:02;3.85;;;1.70;;
54261;SDS011;40174;52.364;6.452;2022-07-29T08:56:29;7.40;;;2.28;;
54261;SDS011;40174;52.364;6.452;2022-07-29T08:58:56;4.40;;;2.20;;
54261;SDS011;40174;52.364;6.452;2022-07-29T09:01:25;5.30;;;1.95;;
54261;SDS011;40174;52.364;6.452;2022-07-29T09:03:54;4.70;;;1.98;;
54261;SDS011;40174;52.364;6.452;2022-07-29T09:06:23;5.30;;;2.10;;
54261;SDS011;40174;52.364;6.452;2022-07-29T09:08:53;5.22;;;2.05;;
54261;SDS011;40174;52.364;6.452;2022-07-29T09:11:20;3.92;;;1.90;;
54261;SDS011;40174;52.364;6.452;2022-07-29T09:13:47;3.65;;;1.58;;
54261;SDS011;40174;52.364;6.452;2022-07-29T09:16:14;5.93;;;2.28;;
54261;SDS011;40174;52.364;6.452;2022-07-29T09:18:41;4.72;;;2.33;;
54261;SDS011;40174;52.364;6.452;2022-07-29T09:21:09;5.57;;;2.00;;
54261;SDS011;40174;52.364;6.452;2022-07-29T09:24:04;4.90;;;2.00;;
54261;SDS011;40174;52.364;6.452;2022-07-29T09:26:33;4.80;;;2.13;;
54261;SDS011;40174;52.364;6.452;2022-07-29T09:29:07;8.68;;;3.25;;
54261;SDS011;40174;52.364;6.452;2022-07-29T09:31:37;7.03;;;2.42;;
54261;SDS011;40174;52.364;6.452;2022-07-29T09:34:05;4.57;;;2.22;;
54261;SDS011;40174;52.364;6.452;2022-07-29T09:36:38;5.18;;;2.45;;
54261;SDS011;40174;52.364;6.452;2022-07-29T09:39:07;8.30;;;2.40;;
54261;SDS011;40174;52.364;6.452;2022-07-29T09:41:47;5.80;;;2.25;;
54261;SDS011;40174;52.364;6.452;2022-07-29T09:44:15;4.28;;;2.00;;
54261;SDS011;40174;52.364;6.452;2022-07-29T09:46:52;6.90;;;3.03;;
54261;SDS011;40174;52.364;6.452;2022-07-29T09:49:20;6.70;;;2.60;;
54261;SDS011;40174;52.364;6.452;2022-07-29T09:51:46;7.13;;;2.63;;
54261;SDS011;40174;52.364;6.452;2022-07-29T09:54:24;5.43;;;2.25;;
54261;SDS011;40174;52.364;6.452;2022-07-29T09:56:52;5.88;;;1.95;;
54261;SDS011;40174;52.364;6.452;2022-07-29T09:59:19;7.57;;;2.30;;
54261;SDS011;40174;52.364;6.452;2022-07-29T10:01:49;9.00;;;2.40;;
54261;SDS011;40174;52.364;6.452;2022-07-29T10:04:16;7.20;;;2.90;;
54261;SDS011;40174;52.364;6.452;2022-07-29T10:06:55;4.97;;;2.47;;
54261;SDS011;40174;52.364;6.452;2022-07-29T10:09:24;6.25;;;2.58;;
54261;SDS011;40174;52.364;6.452;2022-07-29T10:12:04;5.28;;;2.25;;
54261;SDS011;40174;52.364;6.452;2022-07-29T10:14:33;8.82;;;2.47;;
54261;SDS011;40174;52.364;6.452;2022-07-29T10:17:00;7.53;;;2.58;;
54261;SDS011;40174;52.364;6.452;2022-07-29T10:19:28;4.57;;;2.58;;
54261;SDS011;40174;52.364;6.452;2022-07-29T10:21:55;6.50;;;2.53;;
54261;SDS011;40174;52.364;6.452;2022-07-29T10:24:22;9.85;;;2.67;;
54261;SDS011;40174;52.364;6.452;2022-07-29T10:26:52;5.05;;;2.30;;
54261;SDS011;40174;52.364;6.452;2022-07-29T10:29:19;6.35;;;2.63;;
54261;SDS011;40174;52.364;6.452;2022-07-29T10:31:48;6.88;;;2.60;;
54261;SDS011;40174;52.364;6.452;2022-07-29T10:34:31;6.30;;;2.22;;
54261;SDS011;40174;52.364;6.452;2022-07-29T10:37:12;8.07;;;2.65;;
54261;SDS011;40174;52.364;6.452;2022-07-29T10:39:50;4.32;;;2.33;;
54261;SDS011;40174;52.364;6.452;2022-07-29T10:42:23;5.32;;;2.35;;
54261;SDS011;40174;52.364;6.452;2022-07-29T10:44:51;4.68;;;1.98;;
54261;SDS011;40174;52.364;6.452;2022-07-29T10:47:20;9.80;;;2.50;;
54261;SDS011;40174;52.364;6.452;2022-07-29T10:49:57;5.03;;;2.15;;
54261;SDS011;40174;52.364;6.452;2022-07-29T10:52:24;7.18;;;2.30;;
54261;SDS011;40174;52.364;6.452;2022-07-29T10:58:10;6.22;;;2.00;;
54261;SDS011;40174;52.364;6.452;2022-07-29T11:00:41;6.18;;;2.22;;
54261;SDS011;40174;52.364;6.452;2022-07-29T11:03:07;5.65;;;2.38;;
54261;SDS011;40174;52.364;6.452;2022-07-29T11:05:53;6.95;;;2.75;;
54261;SDS011;40174;52.364;6.452;2022-07-29T11:08:22;10.85;;;2.88;;
54261;SDS011;40174;52.364;6.452;2022-07-29T11:10:52;5.88;;;2.67;;
54261;SDS011;40174;52.364;6.452;2022-07-29T11:13:46;7.43;;;2.45;;
54261;SDS011;40174;52.364;6.452;2022-07-29T11:16:15;5.85;;;2.53;;
54261;SDS011;40174;52.364;6.452;2022-07-29T11:21:45;6.55;;;2.47;;
54261;SDS011;40174;52.364;6.452;2022-07-29T11:24:15;5.03;;;1.90;;
54261;SDS011;40174;52.364;6.452;2022-07-29T11:26:45;5.90;;;2.05;;
54261;SDS011;40174;52.364;6.452;2022-07-29T11:29:16;7.07;;;2.47;;
54261;SDS011;40174;52.364;6.452;2022-07-29T11:31:46;8.25;;;2.30;;
54261;SDS011;40174;52.364;6.452;2022-07-29T11:34:20;6.18;;;2.35;;
54261;SDS011;40174;52.364;6.452;2022-07-29T11:40:08;7.00;;;2.53;;
54261;SDS011;40174;52.364;6.452;2022-07-29T11:42:47;6.85;;;2.35;;
54261;SDS011;40174;52.364;6.452;2022-07-29T11:45:20;5.30;;;1.73;;
54261;SDS011;40174;52.364;6.452;2022-07-29T11:47:57;7.57;;;2.47;;
54261;SDS011;40174;52.364;6.452;2022-07-29T11:50:32;6.50;;;2.13;;
54261;SDS011;40174;52.364;6.452;2022-07-29T11:53:00;3.83;;;1.70;;
54261;SDS011;40174;52.364;6.452;2022-07-29T11:55:29;5.97;;;1.65;;
54261;SDS011;40174;52.364;6.452;2022-07-29T11:58:02;7.55;;;2.22;;
54261;SDS011;40174;52.364;6.452;2022-07-29T12:00:29;4.68;;;1.98;;
54261;SDS011;40174;52.364;6.452;2022-07-29T12:02:58;6.00;;;1.90;;
54261;SDS011;40174;52.364;6.452;2022-07-29T12:05:30;4.35;;;1.80;;
54261;SDS011;40174;52.364;6.452;2022-07-29T12:08:04;5.32;;;2.00;;
54261;SDS011;40174;52.364;6.452;2022-07-29T12:10:32;3.00;;;1.63;;
54261;SDS011;40174;52.364;6.452;2022-07-29T12:12:59;5.95;;;1.90;;
54261;SDS011;40174;52.364;6.452;2022-07-29T12:15:26;8.57;;;1.90;;
54261;SDS011;40174;52.364;6.452;2022-07-29T12:17:53;7.30;;;2.10;;
54261;SDS011;40174;52.364;6.452;2022-07-29T12:20:23;5.18;;;1.85;;
54261;SDS011;40174;52.364;6.452;2022-07-29T12:22:51;6.25;;;1.92;;
54261;SDS011;40174;52.364;6.452;2022-07-29T12:25:19;6.32;;;2.08;;
54261;SDS011;40174;52.364;6.452;2022-07-29T12:27:47;6.55;;;2.25;;
54261;SDS011;40174;52.364;6.452;2022-07-29T12:30:33;4.55;;;1.70;;
54261;SDS011;40174;52.364;6.452;2022-07-29T12:33:10;5.10;;;1.65;;
54261;SDS011;40174;52.364;6.452;2022-07-29T12:35:38;6.65;;;2.10;;
54261;SDS011;40174;52.364;6.452;2022-07-29T12:38:08;5.35;;;1.98;;
54261;SDS011;40174;52.364;6.452;2022-07-29T12:40:38;5.90;;;2.13;;
54261;SDS011;40174;52.364;6.452;2022-07-29T12:43:06;6.03;;;2.17;;
54261;SDS011;40174;52.364;6.452;2022-07-29T12:45:35;6.28;;;2.00;;
54261;SDS011;40174;52.364;6.452;2022-07-29T12:48:03;4.75;;;2.03;;
54261;SDS011;40174;52.364;6.452;2022-07-29T12:50:30;6.47;;;2.22;;
54261;SDS011;40174;52.364;6.452;2022-07-29T12:53:08;5.90;;;1.67;;
54261;SDS011;40174;52.364;6.452;2022-07-29T12:55:41;5.13;;;1.83;;
54261;SDS011;40174;52.364;6.452;2022-07-29T12:58:08;8.27;;;2.00;;
54261;SDS011;40174;52.364;6.452;2022-07-29T13:00:36;4.68;;;1.63;;
54261;SDS011;40174;52.364;6.452;2022-07-29T13:03:03;5.70;;;1.70;;
54261;SDS011;40174;52.364;6.452;2022-07-29T13:05:40;6.60;;;2.30;;
54261;SDS011;40174;52.364;6.452;2022-07-29T13:08:11;9.18;;;2.00;;
54261;SDS011;40174;52.364;6.452;2022-07-29T13:10:39;7.35;;;2.20;;
54261;SDS011;40174;52.364;6.452;2022-07-29T13:13:06;6.20;;;2.15;;
54261;SDS011;40174;52.364;6.452;2022-07-29T13:15:35;6.53;;;2.10;;
54261;SDS011;40174;52.364;6.452;2022-07-29T13:18:04;6.90;;;1.80;;
54261;SDS011;40174;52.364;6.452;2022-07-29T13:20:51;5.15;;;1.90;;
54261;SDS011;40174;52.364;6.452;2022-07-29T13:23:17;7.43;;;1.85;;
54261;SDS011;40174;52.364;6.452;2022-07-29T13:25:44;7.53;;;2.05;;
54261;SDS011;40174;52.364;6.452;2022-07-29T13:28:10;4.78;;;1.75;;
54261;SDS011;40174;52.364;6.452;2022-07-29T13:30:38;3.13;;;1.30;;
54261;SDS011;40174;52.364;6.452;2022-07-29T13:33:06;6.50;;;1.65;;
54261;SDS011;40174;52.364;6.452;2022-07-29T13:35:32;5.93;;;2.20;;
54261;SDS011;40174;52.364;6.452;2022-07-29T13:37:59;9.68;;;2.58;;
54261;SDS011;40174;52.364;6.452;2022-07-29T13:40:26;4.70;;;1.60;;
54261;SDS011;40174;52.364;6.452;2022-07-29T13:42:54;5.75;;;2.03;;
54261;SDS011;40174;52.364;6.452;2022-07-29T13:45:20;6.10;;;2.22;;
54261;SDS011;40174;52.364;6.452;2022-07-29T13:47:48;6.75;;;1.60;;
54261;SDS011;40174;52.364;6.452;2022-07-29T13:50:15;3.88;;;1.65;;
54261;SDS011;40174;52.364;6.452;2022-07-29T13:52:41;4.03;;;1.42;;
54261;SDS011;40174;52.364;6.452;2022-07-29T13:55:08;3.38;;;1.17;;
54261;SDS011;40174;52.364;6.452;2022-07-29T13:57:35;2.85;;;1.42;;
54261;SDS011;40174;52.364;6.452;2022-07-29T14:00:01;3.45;;;1.60;;
54261;SDS011;40174;52.364;6.452;2022-07-29T14:02:33;3.67;;;1.48;;
54261;SDS011;40174;52.364;6.452;2022-07-29T14:05:01;5.97;;;1.90;;
54261;SDS011;40174;52.364;6.452;2022-07-29T14:07:28;2.97;;;1.23;;
54261;SDS011;40174;52.364;6.452;2022-07-29T14:09:54;6.97;;;1.90;;
54261;SDS011;40174;52.364;6.452;2022-07-29T14:12:21;2.58;;;1.63;;
54261;SDS011;40174;52.364;6.452;2022-07-29T14:14:48;6.57;;;1.30;;
54261;SDS011;40174;52.364;6.452;2022-07-29T14:17:15;4.88;;;1.23;;
54261;SDS011;40174;52.364;6.452;2022-07-29T14:19:42;4.78;;;1.35;;
54261;SDS011;40174;52.364;6.452;2022-07-29T14:22:10;5.00;;;1.40;;
54261;SDS011;40174;52.364;6.452;2022-07-29T14:24:36;5.82;;;1.60;;
54261;SDS011;40174;52.364;6.452;2022-07-29T14:27:03;4.20;;;1.70;;
54261;SDS011;40174;52.364;6.452;2022-07-29T14:29:30;3.42;;;1.42;;
54261;SDS011;40174;52.364;6.452;2022-07-29T14:31:57;5.00;;;1.63;;
54261;SDS011;40174;52.364;6.452;2022-07-29T14:34:23;5.95;;;1.45;;
54261;SDS011;40174;52.364;6.452;2022-07-29T14:36:50;5.72;;;1.20;;
54261;SDS011;40174;52.364;6.452;2022-07-29T14:39:21;7.38;;;1.70;;
54261;SDS011;40174;52.364;6.452;2022-07-29T14:41:49;6.70;;;1.80;;
54261;SDS011;40174;52.364;6.452;2022-07-29T14:44:16;5.05;;;1.20;;
54261;SDS011;40174;52.364;6.452;2022-07-29T14:46:42;4.50;;;1.45;;
54261;SDS011;40174;52.364;6.452;2022-07-29T14:49:09;6.50;;;1.80;;
54261;SDS011;40174;52.364;6.452;2022-07-29T14:51:36;5.07;;;1.58;;
54261;SDS011;40174;52.364;6.452;2022-07-29T14:54:03;2.58;;;1.20;;
54261;SDS011;40174;52.364;6.452;2022-07-29T14:56:33;3.33;;;1.38;;
54261;SDS011;40174;52.364;6.452;2022-07-29T14:59:00;5.95;;;1.00;;
54261;SDS011;40174;52.364;6.452;2022-07-29T15:01:27;5.93;;;1.60;;
54261;SDS011;40174;52.364;6.452;2022-07-29T15:03:54;2.35;;;1.17;;
54261;SDS011;40174;52.364;6.452;2022-07-29T15:06:20;2.90;;;1.30;;